createdAt,value
2022-08-18T00:03:11.771Z,12.57
2022-08-18T00:13:51.108Z,10.32
2022-08-18T00:24:12.655Z,9.18
2022-08-18T00:34:34.168Z,9.15
2022-08-18T00:44:56.667Z,9.23
2022-08-18T00:55:19.348Z,8.70
2022-08-18T01:05:48.289Z,8.45
2022-08-18T01:16:28.932Z,9.10
2022-08-18T01:26:50.621Z,9.43
2022-08-18T01:37:12.129Z,8.68
2022-08-18T01:47:48.213Z,8.80
2022-08-18T01:58:10.778Z,8.30
2022-08-18T02:08:32.359Z,9.20
2022-08-18T02:18:55.370Z,8.40
2022-08-18T02:29:16.987Z,8.18
2022-08-18T02:39:38.750Z,9.13
2022-08-18T02:50:00.317Z,10.00
2022-08-18T03:00:21.907Z,10.63
2022-08-18T03:10:43.414Z,14.20
2022-08-18T03:21:10.062Z,12.85
2022-08-18T03:31:31.636Z,12.38
2022-08-18T03:42:00.190Z,12.07
2022-08-18T03:52:23.491Z,12.43
2022-08-18T04:02:45.035Z,12.15
2022-08-18T04:13:06.582Z,12.02
2022-08-18T04:23:28.195Z,11.68
2022-08-18T04:33:50.002Z,11.95
2022-08-18T04:44:12.626Z,12.00
2022-08-18T04:54:38.767Z,10.80
2022-08-18T05:05:03.372Z,9.55
2022-08-18T05:15:24.920Z,9.35
2022-08-18T05:25:47.322Z,12.00
2022-08-18T05:36:15.243Z,11.77
2022-08-18T05:46:53.421Z,11.77
2022-08-18T05:57:19.938Z,15.15
2022-08-18T06:07:46.788Z,16.77
2022-08-18T06:18:31.157Z,15.65
2022-08-18T06:29:03.816Z,14.75
2022-08-18T06:39:41.726Z,14.88
2022-08-18T06:50:12.396Z,13.63
2022-08-18T07:11:11.992Z,16.77
2022-08-18T07:21:37.912Z,17.10
2022-08-18T07:32:04.654Z,15.48
2022-08-18T07:43:02.470Z,12.63
2022-08-18T07:53:27.277Z,12.13
2022-08-18T08:03:57.310Z,11.32
2022-08-18T08:14:41.419Z,10.52
2022-08-18T08:25:17.510Z,9.60
2022-08-18T08:36:25.996Z,6.78
2022-08-18T08:46:51.117Z,6.45
2022-08-18T08:57:14.821Z,6.10
2022-08-18T09:08:00.644Z,5.13
2022-08-18T09:18:29.669Z,4.70
2022-08-18T09:28:59.630Z,3.75
2022-08-18T09:39:56.483Z,3.22
2022-08-18T09:50:28.372Z,4.55
2022-08-18T10:01:28.130Z,4.03
2022-08-18T10:12:19.595Z,3.95
2022-08-18T10:22:48.365Z,2.80
2022-08-18T10:33:18.310Z,3.17
2022-08-18T10:54:29.867Z,3.17
2022-08-18T11:04:59.252Z,3.53
2022-08-18T11:26:19.540Z,3.42
2022-08-18T11:36:49.368Z,4.00
2022-08-18T11:47:23.642Z,3.58
2022-08-18T11:57:59.203Z,3.80
2022-08-18T12:08:56.163Z,3.90
2022-08-18T12:19:13.340Z,3.40
2022-08-18T12:29:43.296Z,3.00
2022-08-18T12:50:30.859Z,3.45
2022-08-18T13:00:55.468Z,3.83
2022-08-18T13:11:23.773Z,4.03
2022-08-18T13:21:46.631Z,3.40
2022-08-18T13:32:09.491Z,3.28
2022-08-18T13:42:50.250Z,3.30
2022-08-18T13:53:16.440Z,3.35
2022-08-18T14:03:47.517Z,3.00
2022-08-18T14:14:09.459Z,2.83
2022-08-18T14:24:51.310Z,4.28
2022-08-18T14:35:32.072Z,3.72
2022-08-18T14:45:58.104Z,2.50
2022-08-18T14:56:19.950Z,3.67
2022-08-18T15:06:43.557Z,3.03
2022-08-18T15:17:17.984Z,3.22
2022-08-18T15:27:42.549Z,3.03
2022-08-18T15:38:05.646Z,2.70
2022-08-18T15:48:28.650Z,3.15
2022-08-18T15:58:51.288Z,3.03
2022-08-18T16:09:14.334Z,2.28
2022-08-18T16:19:37.396Z,2.10
2022-08-18T16:29:59.266Z,2.47
2022-08-18T16:40:21.211Z,1.65
2022-08-18T16:50:45.308Z,1.85
2022-08-18T17:01:25.492Z,1.60
2022-08-18T17:11:54.101Z,1.40
2022-08-18T17:22:17.624Z,1.38
2022-08-18T17:32:54.726Z,1.50
2022-08-18T17:43:21.777Z,1.70
2022-08-18T17:53:43.731Z,1.50
2022-08-18T18:04:05.512Z,1.50
2022-08-18T18:14:36.039Z,1.48
2022-08-18T18:25:04.531Z,1.27
2022-08-18T18:35:31.261Z,1.83
2022-08-18T18:46:24.122Z,1.70
2022-08-18T18:56:53.147Z,1.77
2022-08-18T19:07:24.038Z,1.70
2022-08-18T19:17:51.430Z,1.90
2022-08-18T19:28:19.982Z,1.80
2022-08-18T19:39:02.082Z,1.65
2022-08-18T19:49:53.233Z,1.88
2022-08-18T20:00:22.959Z,1.70
2022-08-18T20:11:20.927Z,1.73
2022-08-18T20:22:05.910Z,2.40
2022-08-18T20:32:34.428Z,2.42
2022-08-18T20:43:07.232Z,2.30
2022-08-18T20:53:55.330Z,2.38
2022-08-18T21:04:52.523Z,2.55
2022-08-18T21:15:14.086Z,2.50
2022-08-18T21:25:37.091Z,2.78
2022-08-18T21:35:58.662Z,3.88
2022-08-18T21:46:28.084Z,3.85
2022-08-18T21:57:20.318Z,4.55
2022-08-18T22:07:48.452Z,6.80
2022-08-18T22:18:16.110Z,13.75
2022-08-18T22:29:00.955Z,22.00
2022-08-18T22:39:30.121Z,9.15
2022-08-18T22:49:51.925Z,11.43
2022-08-18T23:00:19.121Z,14.20
2022-08-18T23:10:40.708Z,14.10
2022-08-18T23:21:02.269Z,12.68
2022-08-18T23:31:23.791Z,10.57
2022-08-18T23:41:45.277Z,7.68
2022-08-18T23:52:06.826Z,6.18
